Rochester, NY (14618)

7:47 AM EST on March 02, 2015 (GMT -0500)
Evans Farm | Change Station
CLOSE
Current Station
Personal Weather Station
Location: Rochester, NY
Elevation: 512 ft
Nearby Weather Stations

Elev 512 ft 43.11 °N, 77.56 °W | Updated 13 seconds ago

Overcast
Overcast
20.9 °F
Feels Like 21 °F
N
0.0
Wind Variable Wind from SW
Gusts 9.0 mph

Today
High -- | Low -- °F
--% Chance of Precip.
Yesterday
High -- | Low -- °F
Precip. -- in
6:45 AM 6:00 PM
Waxing Gibbous, 91% visible
Pressure 30.17 in
Visibility 4.0 miles
Clouds Scattered Clouds 1600 ft
Mostly Cloudy 3600 ft
Overcast 5000 ft
Windchill 21 °F
Dew Point 17 °F
Humidity 86%
Rainfall 0.00 in
Snow Depth Not available.
UV 0 out of 12
Pollen .50 out of 12
Air Quality Not available.
Flu Activity Not available.
SPECI KROC 021238Z 26015KT 4SM -SN SCT016 BKN036 OVC050 M06/M09 A3017 RMK AO2 BINOVC P0000 T10561089

More Conditions Fewer Conditions

Pressure 30.17 in
Visibility 4.0 miles
Clouds Scattered Clouds 1600 ft
Mostly Cloudy 3600 ft
Overcast 5000 ft
Windchill 21 °F
Dew Point 17 °F
Humidity 86%
Rainfall 0.00 in
Snow Depth Not available.
UV 0 out of 12
Pollen .50 out of 12
Air Quality Not available.
Flu Activity Not available.
SPECI KROC 021238Z 26015KT 4SM -SN SCT016 BKN036 OVC050 M06/M09 A3017 RMK AO2 BINOVC P0000 T10561089

More Conditions Fewer Conditions

10-Day Weather Forecast

Almanac

Astronomy

Mar. 02, 2015 Rise Set
Actual Time
Civil Twilight
Nautical Twilight
Astronomical Twilight
Moon
Length of Visible Light
Length of Day
Tomorrow will be .
, % of the Moon is Illuminated

Today's Extremes

State Highs State Lows

Community

WunderPhotos

Upload Photos

1,801,772 photos uploaded!

WunderBlogs® & News

Nearby

Air Quality

  Air Quality AQ Index Pollutant
Not available.

Snow Depth

Station Depth Elevation

Earthquake Activity

City Distance Mag. Time & Date
Minimum magnitude displayed is 2.5.

Coastal Water Temperatures

Place Temperature

Nearby Weather Stations